sensor_id;sensor_type;location;lat;lon;timestamp;P1;durP1;ratioP1;P2;durP2;ratioP2
21733;SDS011;11029;47.820;10.534;2023-12-20T00:01:46;2.50;;;2.13;;
21733;SDS011;11029;47.820;10.534;2023-12-20T00:04:32;2.35;;;1.90;;
21733;SDS011;11029;47.820;10.534;2023-12-20T00:07:18;3.53;;;2.20;;
21733;SDS011;11029;47.820;10.534;2023-12-20T00:10:04;2.42;;;1.90;;
21733;SDS011;11029;47.820;10.534;2023-12-20T00:12:50;5.30;;;2.97;;
21733;SDS011;11029;47.820;10.534;2023-12-20T00:15:36;6.00;;;2.95;;
21733;SDS011;11029;47.820;10.534;2023-12-20T00:18:21;6.82;;;3.33;;
21733;SDS011;11029;47.820;10.534;2023-12-20T00:21:06;14.07;;;4.47;;
21733;SDS011;11029;47.820;10.534;2023-12-20T00:23:52;9.40;;;3.92;;
21733;SDS011;11029;47.820;10.534;2023-12-20T00:26:38;8.20;;;3.55;;
21733;SDS011;11029;47.820;10.534;2023-12-20T00:29:23;6.43;;;2.83;;
21733;SDS011;11029;47.820;10.534;2023-12-20T00:32:09;7.00;;;3.10;;
21733;SDS011;11029;47.820;10.534;2023-12-20T00:34:55;4.28;;;2.60;;
21733;SDS011;11029;47.820;10.534;2023-12-20T00:37:40;2.85;;;2.25;;
21733;SDS011;11029;47.820;10.534;2023-12-20T00:40:29;2.08;;;1.75;;
21733;SDS011;11029;47.820;10.534;2023-12-20T00:43:15;2.58;;;1.90;;
21733;SDS011;11029;47.820;10.534;2023-12-20T00:46:00;3.17;;;1.95;;
21733;SDS011;11029;47.820;10.534;2023-12-20T00:48:46;2.30;;;1.80;;
21733;SDS011;11029;47.820;10.534;2023-12-20T00:51:31;2.10;;;1.48;;
21733;SDS011;11029;47.820;10.534;2023-12-20T00:54:16;2.97;;;1.67;;
21733;SDS011;11029;47.820;10.534;2023-12-20T00:57:02;2.75;;;1.65;;
21733;SDS011;11029;47.820;10.534;2023-12-20T00:59:48;2.67;;;1.40;;
21733;SDS011;11029;47.820;10.534;2023-12-20T01:02:33;2.00;;;1.40;;
21733;SDS011;11029;47.820;10.534;2023-12-20T01:05:19;1.50;;;1.30;;
21733;SDS011;11029;47.820;10.534;2023-12-20T01:08:08;1.52;;;1.25;;
21733;SDS011;11029;47.820;10.534;2023-12-20T01:10:53;2.03;;;1.67;;
21733;SDS011;11029;47.820;10.534;2023-12-20T01:13:39;1.58;;;1.38;;
21733;SDS011;11029;47.820;10.534;2023-12-20T01:16:24;1.65;;;1.17;;
21733;SDS011;11029;47.820;10.534;2023-12-20T01:19:10;1.48;;;0.93;;
21733;SDS011;11029;47.820;10.534;2023-12-20T01:21:56;1.50;;;1.33;;
21733;SDS011;11029;47.820;10.534;2023-12-20T01:24:42;1.38;;;1.27;;
21733;SDS011;11029;47.820;10.534;2023-12-20T01:27:28;1.20;;;1.10;;
21733;SDS011;11029;47.820;10.534;2023-12-20T01:30:14;1.70;;;1.08;;
21733;SDS011;11029;47.820;10.534;2023-12-20T01:33:00;1.33;;;0.90;;
21733;SDS011;11029;47.820;10.534;2023-12-20T01:35:46;1.27;;;1.05;;
21733;SDS011;11029;47.820;10.534;2023-12-20T01:38:31;1.95;;;1.20;;
21733;SDS011;11029;47.820;10.534;2023-12-20T01:41:17;1.73;;;1.20;;
21733;SDS011;11029;47.820;10.534;2023-12-20T01:44:02;1.20;;;1.02;;
21733;SDS011;11029;47.820;10.534;2023-12-20T01:46:49;1.40;;;1.30;;
21733;SDS011;11029;47.820;10.534;2023-12-20T01:49:34;1.50;;;1.33;;
21733;SDS011;11029;47.820;10.534;2023-12-20T01:52:20;1.42;;;1.30;;
21733;SDS011;11029;47.820;10.534;2023-12-20T01:55:06;1.63;;;1.30;;
21733;SDS011;11029;47.820;10.534;2023-12-20T01:57:58;1.85;;;1.40;;
21733;SDS011;11029;47.820;10.534;2023-12-20T02:00:45;1.20;;;1.00;;
21733;SDS011;11029;47.820;10.534;2023-12-20T02:03:31;2.00;;;1.15;;
21733;SDS011;11029;47.820;10.534;2023-12-20T02:06:16;1.13;;;1.02;;
21733;SDS011;11029;47.820;10.534;2023-12-20T02:09:06;1.10;;;0.93;;
21733;SDS011;11029;47.820;10.534;2023-12-20T02:11:52;2.05;;;1.40;;
21733;SDS011;11029;47.820;10.534;2023-12-20T02:14:38;1.30;;;1.20;;
21733;SDS011;11029;47.820;10.534;2023-12-20T02:17:24;1.13;;;1.00;;
21733;SDS011;11029;47.820;10.534;2023-12-20T02:20:11;1.73;;;1.13;;
21733;SDS011;11029;47.820;10.534;2023-12-20T02:22:56;1.20;;;1.10;;
21733;SDS011;11029;47.820;10.534;2023-12-20T02:25:42;1.40;;;1.30;;
21733;SDS011;11029;47.820;10.534;2023-12-20T02:28:27;2.78;;;1.63;;
21733;SDS011;11029;47.820;10.534;2023-12-20T02:31:13;2.15;;;1.30;;
21733;SDS011;11029;47.820;10.534;2023-12-20T02:33:59;3.05;;;1.70;;
21733;SDS011;11029;47.820;10.534;2023-12-20T02:36:45;1.88;;;1.25;;
21733;SDS011;11029;47.820;10.534;2023-12-20T02:39:30;1.83;;;1.45;;
21733;SDS011;11029;47.820;10.534;2023-12-20T02:42:16;1.33;;;1.10;;
21733;SDS011;11029;47.820;10.534;2023-12-20T02:45:02;1.52;;;1.20;;
21733;SDS011;11029;47.820;10.534;2023-12-20T02:47:47;1.45;;;1.20;;
21733;SDS011;11029;47.820;10.534;2023-12-20T02:50:33;1.30;;;1.00;;
21733;SDS011;11029;47.820;10.534;2023-12-20T02:53:19;1.75;;;1.40;;
21733;SDS011;11029;47.820;10.534;2023-12-20T02:56:05;1.40;;;1.30;;
21733;SDS011;11029;47.820;10.534;2023-12-20T02:58:51;1.30;;;1.15;;
21733;SDS011;11029;47.820;10.534;2023-12-20T03:01:41;1.40;;;1.15;;
21733;SDS011;11029;47.820;10.534;2023-12-20T03:04:29;1.38;;;1.20;;
21733;SDS011;11029;47.820;10.534;2023-12-20T03:07:15;1.88;;;1.27;;
21733;SDS011;11029;47.820;10.534;2023-12-20T03:10:00;2.05;;;1.27;;
21733;SDS011;11029;47.820;10.534;2023-12-20T03:13:04;2.65;;;1.40;;
21733;SDS011;11029;47.820;10.534;2023-12-20T03:15:49;1.77;;;1.40;;
21733;SDS011;11029;47.820;10.534;2023-12-20T03:18:35;2.45;;;1.90;;
21733;SDS011;11029;47.820;10.534;2023-12-20T03:21:20;2.60;;;1.40;;
21733;SDS011;11029;47.820;10.534;2023-12-20T03:24:06;2.10;;;1.65;;
21733;SDS011;11029;47.820;10.534;2023-12-20T03:26:52;1.70;;;1.50;;
21733;SDS011;11029;47.820;10.534;2023-12-20T03:29:37;2.15;;;1.60;;
21733;SDS011;11029;47.820;10.534;2023-12-20T03:32:23;1.73;;;1.50;;
21733;SDS011;11029;47.820;10.534;2023-12-20T03:35:08;1.77;;;1.63;;
21733;SDS011;11029;47.820;10.534;2023-12-20T03:37:54;1.85;;;1.50;;
21733;SDS011;11029;47.820;10.534;2023-12-20T03:40:40;1.73;;;1.33;;
21733;SDS011;11029;47.820;10.534;2023-12-20T03:43:26;2.33;;;1.80;;
21733;SDS011;11029;47.820;10.534;2023-12-20T03:46:11;2.08;;;1.52;;
21733;SDS011;11029;47.820;10.534;2023-12-20T03:48:58;2.35;;;1.35;;
21733;SDS011;11029;47.820;10.534;2023-12-20T03:51:46;1.65;;;1.48;;
21733;SDS011;11029;47.820;10.534;2023-12-20T03:54:31;1.75;;;1.40;;
21733;SDS011;11029;47.820;10.534;2023-12-20T03:57:17;2.17;;;1.52;;
21733;SDS011;11029;47.820;10.534;2023-12-20T04:00:03;2.17;;;1.50;;
21733;SDS011;11029;47.820;10.534;2023-12-20T04:02:55;1.70;;;1.42;;
21733;SDS011;11029;47.820;10.534;2023-12-20T04:05:41;2.17;;;1.52;;
21733;SDS011;11029;47.820;10.534;2023-12-20T04:08:26;2.10;;;1.52;;
21733;SDS011;11029;47.820;10.534;2023-12-20T04:11:12;2.25;;;1.75;;
21733;SDS011;11029;47.820;10.534;2023-12-20T04:13:58;2.33;;;1.73;;
21733;SDS011;11029;47.820;10.534;2023-12-20T04:16:43;1.92;;;1.60;;
21733;SDS011;11029;47.820;10.534;2023-12-20T04:19:32;2.53;;;1.88;;
21733;SDS011;11029;47.820;10.534;2023-12-20T04:22:18;2.63;;;1.88;;
21733;SDS011;11029;47.820;10.534;2023-12-20T04:25:04;2.63;;;1.95;;
21733;SDS011;11029;47.820;10.534;2023-12-20T04:27:50;3.03;;;2.47;;
21733;SDS011;11029;47.820;10.534;2023-12-20T04:30:36;3.28;;;2.20;;
21733;SDS011;11029;47.820;10.534;2023-12-20T04:33:22;3.25;;;2.17;;
21733;SDS011;11029;47.820;10.534;2023-12-20T04:36:08;1.90;;;1.65;;
21733;SDS011;11029;47.820;10.534;2023-12-20T04:38:54;4.03;;;2.25;;
21733;SDS011;11029;47.820;10.534;2023-12-20T04:41:39;3.28;;;2.17;;
21733;SDS011;11029;47.820;10.534;2023-12-20T04:44:25;2.28;;;1.88;;
21733;SDS011;11029;47.820;10.534;2023-12-20T04:47:11;2.10;;;1.90;;
21733;SDS011;11029;47.820;10.534;2023-12-20T04:49:57;2.25;;;1.92;;
21733;SDS011;11029;47.820;10.534;2023-12-20T04:52:44;3.58;;;1.92;;
21733;SDS011;11029;47.820;10.534;2023-12-20T04:55:29;3.30;;;2.10;;
21733;SDS011;11029;47.820;10.534;2023-12-20T04:58:15;2.53;;;2.03;;
21733;SDS011;11029;47.820;10.534;2023-12-20T05:01:00;1.95;;;1.83;;
21733;SDS011;11029;47.820;10.534;2023-12-20T05:03:46;2.85;;;2.20;;
21733;SDS011;11029;47.820;10.534;2023-12-20T05:06:32;3.05;;;2.53;;
21733;SDS011;11029;47.820;10.534;2023-12-20T05:09:18;2.58;;;2.38;;
21733;SDS011;11029;47.820;10.534;2023-12-20T05:12:04;2.88;;;2.53;;
21733;SDS011;11029;47.820;10.534;2023-12-20T05:14:51;3.67;;;2.58;;
21733;SDS011;11029;47.820;10.534;2023-12-20T05:17:37;5.07;;;3.30;;
21733;SDS011;11029;47.820;10.534;2023-12-20T05:20:23;3.00;;;2.70;;
21733;SDS011;11029;47.820;10.534;2023-12-20T05:23:09;3.13;;;2.80;;
21733;SDS011;11029;47.820;10.534;2023-12-20T05:25:54;3.95;;;2.70;;
21733;SDS011;11029;47.820;10.534;2023-12-20T05:28:40;2.90;;;2.70;;
21733;SDS011;11029;47.820;10.534;2023-12-20T05:31:26;2.80;;;2.60;;
21733;SDS011;11029;47.820;10.534;2023-12-20T05:34:12;2.63;;;2.33;;
21733;SDS011;11029;47.820;10.534;2023-12-20T05:36:58;3.70;;;2.83;;
21733;SDS011;11029;47.820;10.534;2023-12-20T05:39:44;3.15;;;2.72;;
21733;SDS011;11029;47.820;10.534;2023-12-20T05:42:30;3.30;;;2.90;;
21733;SDS011;11029;47.820;10.534;2023-12-20T05:45:15;3.25;;;2.40;;
21733;SDS011;11029;47.820;10.534;2023-12-20T05:48:00;3.22;;;2.53;;
21733;SDS011;11029;47.820;10.534;2023-12-20T05:50:46;2.28;;;2.00;;
21733;SDS011;11029;47.820;10.534;2023-12-20T05:53:32;2.28;;;2.00;;
21733;SDS011;11029;47.820;10.534;2023-12-20T05:56:17;2.65;;;1.80;;
21733;SDS011;11029;47.820;10.534;2023-12-20T05:59:02;2.17;;;1.85;;
21733;SDS011;11029;47.820;10.534;2023-12-20T06:01:48;1.60;;;1.40;;
21733;SDS011;11029;47.820;10.534;2023-12-20T06:04:34;2.15;;;1.60;;
21733;SDS011;11029;47.820;10.534;2023-12-20T06:07:20;1.85;;;1.60;;
21733;SDS011;11029;47.820;10.534;2023-12-20T06:10:06;2.00;;;1.75;;
21733;SDS011;11029;47.820;10.534;2023-12-20T06:12:52;1.92;;;1.40;;
21733;SDS011;11029;47.820;10.534;2023-12-20T06:15:37;1.58;;;1.48;;
21733;SDS011;11029;47.820;10.534;2023-12-20T06:18:23;1.25;;;1.15;;
21733;SDS011;11029;47.820;10.534;2023-12-20T06:21:09;2.00;;;1.38;;
21733;SDS011;11029;47.820;10.534;2023-12-20T06:23:58;1.17;;;1.00;;
21733;SDS011;11029;47.820;10.534;2023-12-20T06:26:45;1.10;;;1.00;;
21733;SDS011;11029;47.820;10.534;2023-12-20T06:29:30;1.08;;;0.98;;
21733;SDS011;11029;47.820;10.534;2023-12-20T06:32:16;1.10;;;0.90;;
21733;SDS011;11029;47.820;10.534;2023-12-20T06:35:01;1.50;;;1.20;;
21733;SDS011;11029;47.820;10.534;2023-12-20T06:37:48;1.00;;;1.00;;
21733;SDS011;11029;47.820;10.534;2023-12-20T06:40:33;1.10;;;0.98;;
21733;SDS011;11029;47.820;10.534;2023-12-20T06:43:18;1.10;;;1.00;;
21733;SDS011;11029;47.820;10.534;2023-12-20T06:46:24;1.52;;;0.82;;
21733;SDS011;11029;47.820;10.534;2023-12-20T06:49:10;0.90;;;0.90;;
21733;SDS011;11029;47.820;10.534;2023-12-20T06:51:57;1.20;;;1.10;;
21733;SDS011;11029;47.820;10.534;2023-12-20T06:54:42;1.40;;;1.33;;
21733;SDS011;11029;47.820;10.534;2023-12-20T06:57:29;0.70;;;0.70;;
21733;SDS011;11029;47.820;10.534;2023-12-20T07:00:15;0.88;;;0.88;;
21733;SDS011;11029;47.820;10.534;2023-12-20T07:03:01;1.70;;;1.50;;
21733;SDS011;11029;47.820;10.534;2023-12-20T07:05:47;3.70;;;3.30;;
21733;SDS011;11029;47.820;10.534;2023-12-20T07:08:32;2.92;;;2.20;;
21733;SDS011;11029;47.820;10.534;2023-12-20T07:11:18;1.55;;;1.40;;
21733;SDS011;11029;47.820;10.534;2023-12-20T07:14:03;2.97;;;2.60;;
21733;SDS011;11029;47.820;10.534;2023-12-20T07:16:49;2.22;;;2.00;;
21733;SDS011;11029;47.820;10.534;2023-12-20T07:19:34;2.67;;;1.98;;
21733;SDS011;11029;47.820;10.534;2023-12-20T07:22:20;1.52;;;1.42;;
21733;SDS011;11029;47.820;10.534;2023-12-20T07:25:06;2.30;;;1.90;;
21733;SDS011;11029;47.820;10.534;2023-12-20T07:27:53;3.60;;;2.10;;
21733;SDS011;11029;47.820;10.534;2023-12-20T07:30:39;4.28;;;2.25;;
21733;SDS011;11029;47.820;10.534;2023-12-20T07:33:24;2.80;;;2.60;;
21733;SDS011;11029;47.820;10.534;2023-12-20T07:36:10;3.17;;;2.63;;
21733;SDS011;11029;47.820;10.534;2023-12-20T07:38:57;2.28;;;2.08;;
21733;SDS011;11029;47.820;10.534;2023-12-20T07:41:43;2.67;;;2.40;;
21733;SDS011;11029;47.820;10.534;2023-12-20T07:44:30;2.50;;;2.10;;
21733;SDS011;11029;47.820;10.534;2023-12-20T07:47:16;2.75;;;2.13;;
21733;SDS011;11029;47.820;10.534;2023-12-20T07:50:06;2.38;;;2.17;;
21733;SDS011;11029;47.820;10.534;2023-12-20T07:52:52;2.03;;;1.90;;
21733;SDS011;11029;47.820;10.534;2023-12-20T07:55:38;2.20;;;2.00;;
21733;SDS011;11029;47.820;10.534;2023-12-20T07:58:24;2.20;;;2.00;;
21733;SDS011;11029;47.820;10.534;2023-12-20T08:01:28;2.00;;;1.80;;
21733;SDS011;11029;47.820;10.534;2023-12-20T08:04:14;1.73;;;1.63;;
21733;SDS011;11029;47.820;10.534;2023-12-20T08:07:00;1.80;;;1.70;;
21733;SDS011;11029;47.820;10.534;2023-12-20T08:09:46;2.22;;;2.03;;
21733;SDS011;11029;47.820;10.534;2023-12-20T08:12:31;1.95;;;1.85;;
21733;SDS011;11029;47.820;10.534;2023-12-20T08:15:18;2.38;;;2.00;;
21733;SDS011;11029;47.820;10.534;2023-12-20T08:18:04;1.88;;;1.75;;
21733;SDS011;11029;47.820;10.534;2023-12-20T08:20:50;2.17;;;1.73;;
21733;SDS011;11029;47.820;10.534;2023-12-20T08:23:37;2.17;;;1.60;;
21733;SDS011;11029;47.820;10.534;2023-12-20T08:26:23;1.75;;;1.58;;
21733;SDS011;11029;47.820;10.534;2023-12-20T08:29:09;2.85;;;1.50;;
21733;SDS011;11029;47.820;10.534;2023-12-20T08:31:55;1.50;;;1.40;;
21733;SDS011;11029;47.820;10.534;2023-12-20T08:34:41;4.05;;;2.00;;
21733;SDS011;11029;47.820;10.534;2023-12-20T08:37:27;4.53;;;2.90;;
21733;SDS011;11029;47.820;10.534;2023-12-20T08:40:13;1.60;;;1.50;;
21733;SDS011;11029;47.820;10.534;2023-12-20T08:43:03;1.50;;;1.40;;
21733;SDS011;11029;47.820;10.534;2023-12-20T08:45:49;1.20;;;1.08;;
21733;SDS011;11029;47.820;10.534;2023-12-20T08:48:35;1.13;;;0.93;;
21733;SDS011;11029;47.820;10.534;2023-12-20T08:51:21;1.27;;;1.17;;
21733;SDS011;11029;47.820;10.534;2023-12-20T08:54:09;1.10;;;1.00;;
21733;SDS011;11029;47.820;10.534;2023-12-20T08:56:55;0.70;;;0.70;;
21733;SDS011;11029;47.820;10.534;2023-12-20T08:59:40;1.48;;;0.93;;
21733;SDS011;11029;47.820;10.534;2023-12-20T09:02:25;1.02;;;1.02;;
21733;SDS011;11029;47.820;10.534;2023-12-20T09:05:11;0.90;;;0.90;;
21733;SDS011;11029;47.820;10.534;2023-12-20T09:07:57;1.20;;;0.98;;
21733;SDS011;11029;47.820;10.534;2023-12-20T09:10:43;1.20;;;0.77;;
21733;SDS011;11029;47.820;10.534;2023-12-20T09:13:29;0.80;;;0.80;;
21733;SDS011;11029;47.820;10.534;2023-12-20T09:16:16;0.73;;;0.70;;
21733;SDS011;11029;47.820;10.534;2023-12-20T09:19:02;0.70;;;0.70;;
21733;SDS011;11029;47.820;10.534;2023-12-20T09:21:48;0.50;;;0.50;;
21733;SDS011;11029;47.820;10.534;2023-12-20T09:24:34;1.00;;;0.90;;
21733;SDS011;11029;47.820;10.534;2023-12-20T09:27:20;0.82;;;0.80;;
21733;SDS011;11029;47.820;10.534;2023-12-20T09:30:06;0.68;;;0.68;;
21733;SDS011;11029;47.820;10.534;2023-12-20T09:36:07;1.42;;;0.70;;
21733;SDS011;11029;47.820;10.534;2023-12-20T09:38:53;0.88;;;0.70;;
21733;SDS011;11029;47.820;10.534;2023-12-20T09:41:41;0.70;;;0.70;;
21733;SDS011;11029;47.820;10.534;2023-12-20T09:44:32;0.70;;;0.70;;
21733;SDS011;11029;47.820;10.534;2023-12-20T09:47:22;0.90;;;0.90;;
21733;SDS011;11029;47.820;10.534;2023-12-20T09:50:09;1.17;;;0.90;;
21733;SDS011;11029;47.820;10.534;2023-12-20T09:52:55;2.22;;;2.05;;
21733;SDS011;11029;47.820;10.534;2023-12-20T09:55:44;2.28;;;0.98;;
21733;SDS011;11029;47.820;10.534;2023-12-20T09:58:30;1.20;;;1.10;;
21733;SDS011;11029;47.820;10.534;2023-12-20T10:01:15;1.75;;;0.70;;
21733;SDS011;11029;47.820;10.534;2023-12-20T10:04:03;1.05;;;0.90;;
21733;SDS011;11029;47.820;10.534;2023-12-20T10:07:01;1.02;;;0.93;;
21733;SDS011;11029;47.820;10.534;2023-12-20T10:09:52;1.08;;;1.08;;
21733;SDS011;11029;47.820;10.534;2023-12-20T10:12:41;1.20;;;1.10;;
21733;SDS011;11029;47.820;10.534;2023-12-20T10:15:50;0.82;;;0.82;;
21733;SDS011;11029;47.820;10.534;2023-12-20T10:18:36;0.90;;;0.90;;
21733;SDS011;11029;47.820;10.534;2023-12-20T10:21:25;0.93;;;0.90;;
21733;SDS011;11029;47.820;10.534;2023-12-20T10:24:15;0.98;;;0.90;;
21733;SDS011;11029;47.820;10.534;2023-12-20T10:27:03;1.48;;;0.80;;
21733;SDS011;11029;47.820;10.534;2023-12-20T10:29:50;1.10;;;1.00;;
21733;SDS011;11029;47.820;10.534;2023-12-20T10:32:36;1.17;;;0.90;;
21733;SDS011;11029;47.820;10.534;2023-12-20T10:35:22;1.48;;;1.20;;
21733;SDS011;11029;47.820;10.534;2023-12-20T10:38:08;2.15;;;1.50;;
21733;SDS011;11029;47.820;10.534;2023-12-20T10:40:54;1.90;;;1.17;;
21733;SDS011;11029;47.820;10.534;2023-12-20T10:43:45;1.70;;;1.33;;
21733;SDS011;11029;47.820;10.534;2023-12-20T10:46:34;0.88;;;0.88;;
21733;SDS011;11029;47.820;10.534;2023-12-20T10:49:20;0.60;;;0.60;;
21733;SDS011;11029;47.820;10.534;2023-12-20T10:52:07;1.20;;;1.10;;
21733;SDS011;11029;47.820;10.534;2023-12-20T10:54:54;0.73;;;0.73;;
21733;SDS011;11029;47.820;10.534;2023-12-20T10:57:40;0.98;;;0.90;;
21733;SDS011;11029;47.820;10.534;2023-12-20T11:00:28;1.10;;;1.00;;
21733;SDS011;11029;47.820;10.534;2023-12-20T11:03:15;0.70;;;0.70;;
21733;SDS011;11029;47.820;10.534;2023-12-20T11:06:18;0.60;;;0.60;;
21733;SDS011;11029;47.820;10.534;2023-12-20T11:13:34;0.55;;;0.55;;
21733;SDS011;11029;47.820;10.534;2023-12-20T11:16:26;0.77;;;0.75;;
21733;SDS011;11029;47.820;10.534;2023-12-20T11:19:25;0.70;;;0.70;;
21733;SDS011;11029;47.820;10.534;2023-12-20T11:22:11;0.50;;;0.50;;
21733;SDS011;11029;47.820;10.534;2023-12-20T11:24:58;0.80;;;0.80;;
21733;SDS011;11029;47.820;10.534;2023-12-20T11:28:08;1.05;;;0.80;;
21733;SDS011;11029;47.820;10.534;2023-12-20T11:34:35;1.15;;;1.00;;
21733;SDS011;11029;47.820;10.534;2023-12-20T11:37:30;1.70;;;1.58;;
21733;SDS011;11029;47.820;10.534;2023-12-20T11:40:18;2.45;;;2.22;;
21733;SDS011;11029;47.820;10.534;2023-12-20T11:43:04;2.83;;;2.20;;
21733;SDS011;11029;47.820;10.534;2023-12-20T11:45:50;3.00;;;2.70;;
21733;SDS011;11029;47.820;10.534;2023-12-20T11:48:39;2.75;;;2.42;;
21733;SDS011;11029;47.820;10.534;2023-12-20T11:51:25;5.40;;;3.90;;
21733;SDS011;11029;47.820;10.534;2023-12-20T11:54:13;2.58;;;2.38;;
21733;SDS011;11029;47.820;10.534;2023-12-20T11:57:01;3.00;;;2.63;;
21733;SDS011;11029;47.820;10.534;2023-12-20T11:59:47;3.45;;;2.65;;
21733;SDS011;11029;47.820;10.534;2023-12-20T12:02:33;3.10;;;2.80;;
21733;SDS011;11029;47.820;10.534;2023-12-20T12:09:20;2.58;;;2.30;;
21733;SDS011;11029;47.820;10.534;2023-12-20T12:12:06;2.70;;;2.25;;
21733;SDS011;11029;47.820;10.534;2023-12-20T12:18:09;3.03;;;2.42;;
21733;SDS011;11029;47.820;10.534;2023-12-20T12:21:01;3.00;;;2.50;;
21733;SDS011;11029;47.820;10.534;2023-12-20T12:27:13;2.50;;;2.30;;
21733;SDS011;11029;47.820;10.534;2023-12-20T12:33:12;1.60;;;1.50;;
21733;SDS011;11029;47.820;10.534;2023-12-20T12:39:12;2.42;;;2.20;;
21733;SDS011;11029;47.820;10.534;2023-12-20T12:42:00;2.08;;;1.90;;
21733;SDS011;11029;47.820;10.534;2023-12-20T12:44:45;2.45;;;1.65;;
21733;SDS011;11029;47.820;10.534;2023-12-20T12:47:31;2.03;;;1.92;;
21733;SDS011;11029;47.820;10.534;2023-12-20T12:50:16;2.13;;;1.92;;
21733;SDS011;11029;47.820;10.534;2023-12-20T12:53:02;2.45;;;2.25;;
21733;SDS011;11029;47.820;10.534;2023-12-20T12:59:28;2.30;;;2.13;;
21733;SDS011;11029;47.820;10.534;2023-12-20T13:02:14;3.00;;;2.17;;
21733;SDS011;11029;47.820;10.534;2023-12-20T13:05:00;1.90;;;1.80;;
21733;SDS011;11029;47.820;10.534;2023-12-20T13:07:47;2.08;;;1.95;;
21733;SDS011;11029;47.820;10.534;2023-12-20T13:10:39;2.13;;;1.88;;
21733;SDS011;11029;47.820;10.534;2023-12-20T13:13:29;2.25;;;1.63;;
21733;SDS011;11029;47.820;10.534;2023-12-20T13:16:15;1.85;;;1.75;;
21733;SDS011;11029;47.820;10.534;2023-12-20T13:19:01;1.92;;;1.83;;
21733;SDS011;11029;47.820;10.534;2023-12-20T13:21:47;1.80;;;1.70;;
21733;SDS011;11029;47.820;10.534;2023-12-20T13:24:33;1.60;;;1.50;;
21733;SDS011;11029;47.820;10.534;2023-12-20T13:27:19;1.98;;;1.85;;
21733;SDS011;11029;47.820;10.534;2023-12-20T13:33:21;2.70;;;1.73;;
21733;SDS011;11029;47.820;10.534;2023-12-20T13:36:07;1.75;;;1.55;;
21733;SDS011;11029;47.820;10.534;2023-12-20T13:38:53;1.92;;;1.60;;
21733;SDS011;11029;47.820;10.534;2023-12-20T13:41:43;1.83;;;1.73;;
21733;SDS011;11029;47.820;10.534;2023-12-20T13:44:28;1.60;;;1.50;;
21733;SDS011;11029;47.820;10.534;2023-12-20T13:47:15;3.42;;;1.88;;
21733;SDS011;11029;47.820;10.534;2023-12-20T13:53:17;2.15;;;1.95;;
21733;SDS011;11029;47.820;10.534;2023-12-20T13:56:04;1.80;;;1.70;;
21733;SDS011;11029;47.820;10.534;2023-12-20T13:58:50;3.17;;;2.13;;
21733;SDS011;11029;47.820;10.534;2023-12-20T14:01:36;2.30;;;2.10;;
21733;SDS011;11029;47.820;10.534;2023-12-20T14:04:22;2.08;;;1.90;;
21733;SDS011;11029;47.820;10.534;2023-12-20T14:07:27;2.15;;;1.92;;
21733;SDS011;11029;47.820;10.534;2023-12-20T14:10:15;3.58;;;2.53;;
21733;SDS011;11029;47.820;10.534;2023-12-20T14:13:01;2.60;;;2.20;;
21733;SDS011;11029;47.820;10.534;2023-12-20T14:15:47;2.80;;;2.45;;
21733;SDS011;11029;47.820;10.534;2023-12-20T14:18:36;1.80;;;1.70;;
21733;SDS011;11029;47.820;10.534;2023-12-20T14:21:22;2.17;;;1.92;;
21733;SDS011;11029;47.820;10.534;2023-12-20T14:24:09;2.00;;;1.80;;
21733;SDS011;11029;47.820;10.534;2023-12-20T14:26:54;1.98;;;1.85;;
21733;SDS011;11029;47.820;10.534;2023-12-20T14:29:40;1.92;;;1.80;;
21733;SDS011;11029;47.820;10.534;2023-12-20T14:32:25;2.70;;;2.38;;
21733;SDS011;11029;47.820;10.534;2023-12-20T14:35:13;1.63;;;1.50;;
21733;SDS011;11029;47.820;10.534;2023-12-20T14:37:59;3.95;;;2.67;;
21733;SDS011;11029;47.820;10.534;2023-12-20T14:40:45;1.40;;;1.30;;
21733;SDS011;11029;47.820;10.534;2023-12-20T14:43:30;1.50;;;1.40;;
21733;SDS011;11029;47.820;10.534;2023-12-20T14:46:16;2.15;;;1.70;;
21733;SDS011;11029;47.820;10.534;2023-12-20T14:49:02;2.75;;;1.50;;
21733;SDS011;11029;47.820;10.534;2023-12-20T14:51:48;2.10;;;1.50;;
21733;SDS011;11029;47.820;10.534;2023-12-20T14:54:39;1.60;;;1.50;;
21733;SDS011;11029;47.820;10.534;2023-12-20T14:57:26;2.10;;;1.90;;
21733;SDS011;11029;47.820;10.534;2023-12-20T15:00:16;1.80;;;1.70;;
21733;SDS011;11029;47.820;10.534;2023-12-20T15:03:02;4.60;;;2.17;;
21733;SDS011;11029;47.820;10.534;2023-12-20T15:05:49;2.42;;;2.05;;
21733;SDS011;11029;47.820;10.534;2023-12-20T15:08:36;2.03;;;1.77;;
21733;SDS011;11029;47.820;10.534;2023-12-20T15:11:21;2.00;;;1.55;;
21733;SDS011;11029;47.820;10.534;2023-12-20T15:14:06;2.00;;;1.80;;
21733;SDS011;11029;47.820;10.534;2023-12-20T15:16:52;2.00;;;1.80;;
21733;SDS011;11029;47.820;10.534;2023-12-20T15:19:38;4.00;;;1.73;;
21733;SDS011;11029;47.820;10.534;2023-12-20T15:22:23;2.35;;;1.70;;
21733;SDS011;11029;47.820;10.534;2023-12-20T15:25:11;3.75;;;3.00;;
21733;SDS011;11029;47.820;10.534;2023-12-20T15:27:57;6.07;;;3.50;;
21733;SDS011;11029;47.820;10.534;2023-12-20T15:30:44;5.38;;;3.30;;
21733;SDS011;11029;47.820;10.534;2023-12-20T15:33:30;3.10;;;2.55;;
21733;SDS011;11029;47.820;10.534;2023-12-20T15:36:16;4.85;;;2.75;;
21733;SDS011;11029;47.820;10.534;2023-12-20T15:39:01;3.42;;;2.45;;
21733;SDS011;11029;47.820;10.534;2023-12-20T15:41:52;5.00;;;2.92;;
21733;SDS011;11029;47.820;10.534;2023-12-20T15:44:42;3.72;;;2.30;;
21733;SDS011;11029;47.820;10.534;2023-12-20T15:47:32;2.10;;;1.90;;
21733;SDS011;11029;47.820;10.534;2023-12-20T15:50:21;3.67;;;1.50;;
21733;SDS011;11029;47.820;10.534;2023-12-20T15:53:07;1.73;;;1.52;;
21733;SDS011;11029;47.820;10.534;2023-12-20T15:55:52;1.42;;;1.17;;
21733;SDS011;11029;47.820;10.534;2023-12-20T15:58:38;2.70;;;1.80;;
21733;SDS011;11029;47.820;10.534;2023-12-20T16:01:24;2.42;;;1.50;;
21733;SDS011;11029;47.820;10.534;2023-12-20T16:04:11;1.92;;;1.60;;
21733;SDS011;11029;47.820;10.534;2023-12-20T16:06:57;3.25;;;2.15;;
21733;SDS011;11029;47.820;10.534;2023-12-20T16:09:42;2.42;;;2.15;;
21733;SDS011;11029;47.820;10.534;2023-12-20T16:12:28;2.75;;;1.80;;
21733;SDS011;11029;47.820;10.534;2023-12-20T16:15:13;2.10;;;1.90;;
21733;SDS011;11029;47.820;10.534;2023-12-20T16:17:58;2.47;;;1.77;;
21733;SDS011;11029;47.820;10.534;2023-12-20T16:20:44;1.63;;;1.52;;
21733;SDS011;11029;47.820;10.534;2023-12-20T16:23:29;2.50;;;2.10;;
21733;SDS011;11029;47.820;10.534;2023-12-20T16:26:15;3.42;;;2.30;;
21733;SDS011;11029;47.820;10.534;2023-12-20T16:29:01;6.28;;;2.10;;
21733;SDS011;11029;47.820;10.534;2023-12-20T16:31:46;3.13;;;1.60;;
21733;SDS011;11029;47.820;10.534;2023-12-20T16:34:32;3.53;;;1.83;;
21733;SDS011;11029;47.820;10.534;2023-12-20T16:37:18;6.82;;;1.70;;
21733;SDS011;11029;47.820;10.534;2023-12-20T16:40:05;2.03;;;1.75;;
21733;SDS011;11029;47.820;10.534;2023-12-20T16:42:51;2.90;;;1.40;;
21733;SDS011;11029;47.820;10.534;2023-12-20T16:45:38;2.10;;;1.90;;
21733;SDS011;11029;47.820;10.534;2023-12-20T16:48:23;4.90;;;1.48;;
21733;SDS011;11029;47.820;10.534;2023-12-20T16:51:09;6.95;;;1.70;;
21733;SDS011;11029;47.820;10.534;2023-12-20T16:53:54;5.03;;;1.85;;
21733;SDS011;11029;47.820;10.534;2023-12-20T16:56:40;4.45;;;1.83;;
21733;SDS011;11029;47.820;10.534;2023-12-20T16:59:26;4.00;;;1.85;;
21733;SDS011;11029;47.820;10.534;2023-12-20T17:02:11;3.25;;;1.98;;
21733;SDS011;11029;47.820;10.534;2023-12-20T17:04:57;4.10;;;2.20;;
21733;SDS011;11029;47.820;10.534;2023-12-20T17:07:43;2.85;;;2.17;;